sensor_id;sensor_type;location;lat;lon;timestamp;pressure;altitude;pressure_sealevel;temperature
77412;BMP280;66484;49.968;19.140;2024-01-30T00:01:52;99624.59;;;0.55
77412;BMP280;66484;49.968;19.140;2024-01-30T00:03:53;99631.28;;;0.49
77412;BMP280;66484;49.968;19.140;2024-01-30T00:05:53;99625.38;;;0.55
77412;BMP280;66484;49.968;19.140;2024-01-30T00:07:54;99621.22;;;0.54
77412;BMP280;66484;49.968;19.140;2024-01-30T00:09:55;99630.03;;;0.62
77412;BMP280;66484;49.968;19.140;2024-01-30T00:11:56;99625.25;;;0.71
77412;BMP280;66484;49.968;19.140;2024-01-30T00:13:57;99619.22;;;0.70
77412;BMP280;66484;49.968;19.140;2024-01-30T00:15:57;99625.78;;;0.80
77412;BMP280;66484;49.968;19.140;2024-01-30T00:17:58;99621.19;;;0.77
77412;BMP280;66484;49.968;19.140;2024-01-30T00:19:59;99617.53;;;0.85
77412;BMP280;66484;49.968;19.140;2024-01-30T00:21:59;99622.31;;;0.76
77412;BMP280;66484;49.968;19.140;2024-01-30T00:24:00;99624.34;;;0.86
77412;BMP280;66484;49.968;19.140;2024-01-30T00:26:00;99625.25;;;0.97
77412;BMP280;66484;49.968;19.140;2024-01-30T00:28:01;99622.78;;;0.81
77412;BMP280;66484;49.968;19.140;2024-01-30T00:30:02;99623.44;;;0.75
77412;BMP280;66484;49.968;19.140;2024-01-30T00:32:03;99617.34;;;0.71
77412;BMP280;66484;49.968;19.140;2024-01-30T00:34:04;99612.44;;;0.47
77412;BMP280;66484;49.968;19.140;2024-01-30T00:36:05;99616.59;;;0.48
77412;BMP280;66484;49.968;19.140;2024-01-30T00:38:06;99616.59;;;0.48
77412;BMP280;66484;49.968;19.140;2024-01-30T00:40:08;99608.00;;;0.51
77412;BMP280;66484;49.968;19.140;2024-01-30T00:42:13;99614.06;;;0.55
77412;BMP280;66484;49.968;19.140;2024-01-30T00:44:14;99618.13;;;0.49
77412;BMP280;66484;49.968;19.140;2024-01-30T00:46:15;99613.03;;;0.37
77412;BMP280;66484;49.968;19.140;2024-01-30T00:48:15;99610.69;;;0.32
77412;BMP280;66484;49.968;19.140;2024-01-30T00:50:16;99603.38;;;0.45
77412;BMP280;66484;49.968;19.140;2024-01-30T00:52:16;99606.47;;;0.50
77412;BMP280;66484;49.968;19.140;2024-01-30T00:54:17;99615.31;;;0.61
77412;BMP280;66484;49.968;19.140;2024-01-30T00:56:19;99611.56;;;0.62
77412;BMP280;66484;49.968;19.140;2024-01-30T00:58:19;99606.28;;;0.62
77412;BMP280;66484;49.968;19.140;2024-01-30T01:00:20;99608.78;;;0.55
77412;BMP280;66484;49.968;19.140;2024-01-30T01:02:21;99605.81;;;0.34
77412;BMP280;66484;49.968;19.140;2024-01-30T01:04:21;99615.78;;;0.22
77412;BMP280;66484;49.968;19.140;2024-01-30T01:06:22;99608.44;;;0.34
77412;BMP280;66484;49.968;19.140;2024-01-30T01:08:23;99606.00;;;0.45
77412;BMP280;66484;49.968;19.140;2024-01-30T01:10:23;99604.94;;;0.49
77412;BMP280;66484;49.968;19.140;2024-01-30T01:12:24;99600.53;;;0.34
77412;BMP280;66484;49.968;19.140;2024-01-30T01:14:24;99601.72;;;0.37
77412;BMP280;66484;49.968;19.140;2024-01-30T01:16:25;99607.13;;;0.21
77412;BMP280;66484;49.968;19.140;2024-01-30T01:18:26;99606.72;;;0.19
77412;BMP280;66484;49.968;19.140;2024-01-30T01:20:27;99602.94;;;0.20
77412;BMP280;66484;49.968;19.140;2024-01-30T01:22:28;99597.78;;;0.27
77412;BMP280;66484;49.968;19.140;2024-01-30T01:24:31;99602.84;;;0.13
77412;BMP280;66484;49.968;19.140;2024-01-30T01:26:32;99587.72;;;0.10
77412;BMP280;66484;49.968;19.140;2024-01-30T01:28:32;99600.50;;;0.08
77412;BMP280;66484;49.968;19.140;2024-01-30T01:30:32;99592.25;;;0.10
77412;BMP280;66484;49.968;19.140;2024-01-30T01:32:33;99588.59;;;0.18
77412;BMP280;66484;49.968;19.140;2024-01-30T01:34:34;99595.72;;;0.14
77412;BMP280;66484;49.968;19.140;2024-01-30T01:36:34;99583.69;;;0.16
77412;BMP280;66484;49.968;19.140;2024-01-30T01:38:35;99581.16;;;0.23
77412;BMP280;66484;49.968;19.140;2024-01-30T01:40:35;99587.91;;;0.21
77412;BMP280;66484;49.968;19.140;2024-01-30T01:42:36;99575.22;;;0.26
77412;BMP280;66484;49.968;19.140;2024-01-30T01:44:37;99587.84;;;0.17
77412;BMP280;66484;49.968;19.140;2024-01-30T01:46:38;99573.97;;;0.20
77412;BMP280;66484;49.968;19.140;2024-01-30T01:48:39;99569.44;;;0.43
77412;BMP280;66484;49.968;19.140;2024-01-30T01:50:41;99575.28;;;0.55
77412;BMP280;66484;49.968;19.140;2024-01-30T01:52:42;99575.44;;;0.40
77412;BMP280;66484;49.968;19.140;2024-01-30T01:54:43;99579.78;;;0.29
77412;BMP280;66484;49.968;19.140;2024-01-30T01:56:43;99572.84;;;0.21
77412;BMP280;66484;49.968;19.140;2024-01-30T01:58:46;99568.56;;;0.36
77412;BMP280;66484;49.968;19.140;2024-01-30T02:00:48;99569.47;;;0.21
77412;BMP280;66484;49.968;19.140;2024-01-30T02:02:49;99574.19;;;0.12
77412;BMP280;66484;49.968;19.140;2024-01-30T02:04:50;99574.97;;;0.12
77412;BMP280;66484;49.968;19.140;2024-01-30T02:06:51;99566.72;;;0.36
77412;BMP280;66484;49.968;19.140;2024-01-30T02:08:52;99573.75;;;0.54
77412;BMP280;66484;49.968;19.140;2024-01-30T02:10:52;99564.09;;;0.62
77412;BMP280;66484;49.968;19.140;2024-01-30T02:12:53;99562.16;;;0.59
77412;BMP280;66484;49.968;19.140;2024-01-30T02:14:53;99566.59;;;0.55
77412;BMP280;66484;49.968;19.140;2024-01-30T02:16:55;99567.88;;;0.39
77412;BMP280;66484;49.968;19.140;2024-01-30T02:18:56;99558.25;;;0.50
77412;BMP280;66484;49.968;19.140;2024-01-30T02:20:58;99556.19;;;0.62
77412;BMP280;66484;49.968;19.140;2024-01-30T02:23:02;99550.19;;;0.65
77412;BMP280;66484;49.968;19.140;2024-01-30T02:25:02;99552.09;;;0.42
77412;BMP280;66484;49.968;19.140;2024-01-30T02:27:03;99560.34;;;0.37
77412;BMP280;66484;49.968;19.140;2024-01-30T02:29:04;99553.00;;;0.50
77412;BMP280;66484;49.968;19.140;2024-01-30T02:31:04;99551.81;;;0.47
77412;BMP280;66484;49.968;19.140;2024-01-30T02:33:05;99557.59;;;0.56
77412;BMP280;66484;49.968;19.140;2024-01-30T02:35:06;99556.22;;;0.65
77412;BMP280;66484;49.968;19.140;2024-01-30T02:37:06;99551.66;;;0.62
77412;BMP280;66484;49.968;19.140;2024-01-30T02:39:07;99558.22;;;0.72
77412;BMP280;66484;49.968;19.140;2024-01-30T02:41:08;99558.91;;;0.69
77412;BMP280;66484;49.968;19.140;2024-01-30T02:43:08;99558.25;;;0.75
77412;BMP280;66484;49.968;19.140;2024-01-30T02:45:10;99571.19;;;0.58
77412;BMP280;66484;49.968;19.140;2024-01-30T02:47:10;99560.19;;;0.52
77412;BMP280;66484;49.968;19.140;2024-01-30T02:49:11;99568.84;;;0.53
77412;BMP280;66484;49.968;19.140;2024-01-30T02:51:11;99560.44;;;0.44
77412;BMP280;66484;49.968;19.140;2024-01-30T02:53:12;99561.94;;;0.45
77412;BMP280;66484;49.968;19.140;2024-01-30T02:55:12;99558.03;;;0.36
77412;BMP280;66484;49.968;19.140;2024-01-30T02:57:13;99576.19;;;0.41
77412;BMP280;66484;49.968;19.140;2024-01-30T02:59:14;99555.81;;;0.38
77412;BMP280;66484;49.968;19.140;2024-01-30T03:01:14;99564.25;;;0.24
77412;BMP280;66484;49.968;19.140;2024-01-30T03:03:15;99568.41;;;0.25
77412;BMP280;66484;49.968;19.140;2024-01-30T03:05:16;99553.25;;;0.19
77412;BMP280;66484;49.968;19.140;2024-01-30T03:07:16;99558.84;;;0.40
77412;BMP280;66484;49.968;19.140;2024-01-30T03:09:17;99554.34;;;0.40
77412;BMP280;66484;49.968;19.140;2024-01-30T03:11:20;99547.38;;;0.29
77412;BMP280;66484;49.968;19.140;2024-01-30T03:13:21;99551.41;;;0.45
77412;BMP280;66484;49.968;19.140;2024-01-30T03:15:23;99555.75;;;0.34
77412;BMP280;66484;49.968;19.140;2024-01-30T03:17:24;99552.72;;;0.32
77412;BMP280;66484;49.968;19.140;2024-01-30T03:19:25;99555.75;;;0.34
77412;BMP280;66484;49.968;19.140;2024-01-30T03:21:25;99551.25;;;0.35
77412;BMP280;66484;49.968;19.140;2024-01-30T03:23:26;99551.13;;;0.28
77412;BMP280;66484;49.968;19.140;2024-01-30T03:25:26;99544.22;;;0.20
77412;BMP280;66484;49.968;19.140;2024-01-30T03:27:27;99551.94;;;0.09
77412;BMP280;66484;49.968;19.140;2024-01-30T03:29:27;99554.94;;;0.08
77412;BMP280;66484;49.968;19.140;2024-01-30T03:31:28;99553.25;;;-0.03
77412;BMP280;66484;49.968;19.140;2024-01-30T03:33:28;99554.25;;;0.33
77412;BMP280;66484;49.968;19.140;2024-01-30T03:35:29;99554.06;;;0.23
77412;BMP280;66484;49.968;19.140;2024-01-30T03:37:30;99561.13;;;0.41
77412;BMP280;66484;49.968;19.140;2024-01-30T03:39:30;99560.63;;;0.32
77412;BMP280;66484;49.968;19.140;2024-01-30T03:41:31;99545.41;;;0.22
77412;BMP280;66484;49.968;19.140;2024-01-30T03:43:31;99552.16;;;-0.02
77412;BMP280;66484;49.968;19.140;2024-01-30T03:45:32;99552.97;;;0.01
77412;BMP280;66484;49.968;19.140;2024-01-30T03:47:32;99548.81;;;0.00
77412;BMP280;66484;49.968;19.140;2024-01-30T03:49:33;99548.50;;;0.05
77412;BMP280;66484;49.968;19.140;2024-01-30T03:51:33;99540.94;;;0.26
77412;BMP280;66484;49.968;19.140;2024-01-30T03:53:34;99549.38;;;0.13
77412;BMP280;66484;49.968;19.140;2024-01-30T03:55:35;99552.38;;;0.11
77412;BMP280;66484;49.968;19.140;2024-01-30T03:57:36;99552.84;;;-0.05
77412;BMP280;66484;49.968;19.140;2024-01-30T03:59:36;99554.47;;;0.02
77412;BMP280;66484;49.968;19.140;2024-01-30T04:01:37;99554.78;;;-0.02
77412;BMP280;66484;49.968;19.140;2024-01-30T04:03:37;99553.19;;;-0.07
77412;BMP280;66484;49.968;19.140;2024-01-30T04:05:38;99550.03;;;0.06
77412;BMP280;66484;49.968;19.140;2024-01-30T04:07:38;99558.91;;;0.43
77412;BMP280;66484;49.968;19.140;2024-01-30T04:09:39;99552.84;;;0.43
77412;BMP280;66484;49.968;19.140;2024-01-30T04:11:40;99558.44;;;0.38
77412;BMP280;66484;49.968;19.140;2024-01-30T04:13:42;99554.25;;;0.33
77412;BMP280;66484;49.968;19.140;2024-01-30T04:15:43;99552.72;;;0.32
77412;BMP280;66484;49.968;19.140;2024-01-30T04:17:44;99550.44;;;0.31
77412;BMP280;66484;49.968;19.140;2024-01-30T04:19:44;99553.63;;;0.43
77412;BMP280;66484;49.968;19.140;2024-01-30T04:21:45;99544.41;;;0.56
77412;BMP280;66484;49.968;19.140;2024-01-30T04:23:45;99550.50;;;0.60
77412;BMP280;66484;49.968;19.140;2024-01-30T04:25:46;99553.41;;;0.29
77412;BMP280;66484;49.968;19.140;2024-01-30T04:27:47;99553.75;;;0.05
77412;BMP280;66484;49.968;19.140;2024-01-30T04:29:48;99560.16;;;0.04
77412;BMP280;66484;49.968;19.140;2024-01-30T04:31:49;99552.25;;;0.04
77412;BMP280;66484;49.968;19.140;2024-01-30T04:33:49;99552.50;;;-0.04
77412;BMP280;66484;49.968;19.140;2024-01-30T04:35:50;99552.88;;;-0.24
77412;BMP280;66484;49.968;19.140;2024-01-30T04:37:52;99556.00;;;-0.19
77412;BMP280;66484;49.968;19.140;2024-01-30T04:39:53;99549.94;;;-0.19
77412;BMP280;66484;49.968;19.140;2024-01-30T04:41:54;99549.31;;;-0.35
77412;BMP280;66484;49.968;19.140;2024-01-30T04:43:54;99550.53;;;-0.29
77412;BMP280;66484;49.968;19.140;2024-01-30T04:45:55;99548.31;;;-0.27
77412;BMP280;66484;49.968;19.140;2024-01-30T04:47:55;99550.50;;;-0.10
77412;BMP280;66484;49.968;19.140;2024-01-30T04:49:56;99561.06;;;-0.07
77412;BMP280;66484;49.968;19.140;2024-01-30T04:51:57;99548.56;;;-0.36
77412;BMP280;66484;49.968;19.140;2024-01-30T04:53:58;99560.44;;;-0.42
77412;BMP280;66484;49.968;19.140;2024-01-30T04:55:59;99546.41;;;-0.30
77412;BMP280;66484;49.968;19.140;2024-01-30T04:57:59;99556.16;;;-0.31
77412;BMP280;66484;49.968;19.140;2024-01-30T05:00:00;99544.63;;;-0.45
77412;BMP280;66484;49.968;19.140;2024-01-30T05:02:00;99552.06;;;-0.28
77412;BMP280;66484;49.968;19.140;2024-01-30T05:04:01;99548.72;;;-0.25
77412;BMP280;66484;49.968;19.140;2024-01-30T05:06:02;99550.00;;;-0.38
77412;BMP280;66484;49.968;19.140;2024-01-30T05:08:03;99550.56;;;-0.48
77412;BMP280;66484;49.968;19.140;2024-01-30T05:10:04;99555.13;;;-0.45
77412;BMP280;66484;49.968;19.140;2024-01-30T05:12:04;99549.53;;;-0.62
77412;BMP280;66484;49.968;19.140;2024-01-30T05:14:06;99550.09;;;-0.72
77412;BMP280;66484;49.968;19.140;2024-01-30T05:16:07;99554.75;;;-0.66
77412;BMP280;66484;49.968;19.140;2024-01-30T05:18:08;99558.75;;;-0.53
77412;BMP280;66484;49.968;19.140;2024-01-30T05:20:09;99551.72;;;-0.27
77412;BMP280;66484;49.968;19.140;2024-01-30T05:22:11;99556.13;;;-0.12
77412;BMP280;66484;49.968;19.140;2024-01-30T05:24:15;99554.78;;;-0.44
77412;BMP280;66484;49.968;19.140;2024-01-30T05:26:16;99564.84;;;-0.49
77412;BMP280;66484;49.968;19.140;2024-01-30T05:28:17;99558.16;;;-0.43
77412;BMP280;66484;49.968;19.140;2024-01-30T05:30:17;99546.81;;;-0.47
77412;BMP280;66484;49.968;19.140;2024-01-30T05:32:18;99547.53;;;-0.28
77412;BMP280;66484;49.968;19.140;2024-01-30T05:34:19;99557.06;;;-0.23
77412;BMP280;66484;49.968;19.140;2024-01-30T05:36:19;99550.84;;;-0.34
77412;BMP280;66484;49.968;19.140;2024-01-30T05:38:21;99543.84;;;-0.46
77412;BMP280;66484;49.968;19.140;2024-01-30T05:40:21;99550.44;;;-0.55
77412;BMP280;66484;49.968;19.140;2024-01-30T05:42:22;99541.03;;;-0.56
77412;BMP280;66484;49.968;19.140;2024-01-30T05:44:23;99537.00;;;-0.50
77412;BMP280;66484;49.968;19.140;2024-01-30T05:46:23;99538.31;;;-0.59
77412;BMP280;66484;49.968;19.140;2024-01-30T05:48:24;99536.66;;;-0.67
77412;BMP280;66484;49.968;19.140;2024-01-30T05:50:24;99538.97;;;-0.66
77412;BMP280;66484;49.968;19.140;2024-01-30T05:52:26;99541.72;;;-0.59
77412;BMP280;66484;49.968;19.140;2024-01-30T05:54:27;99535.53;;;-0.48
77412;BMP280;66484;49.968;19.140;2024-01-30T05:56:28;99538.81;;;-0.32
77412;BMP280;66484;49.968;19.140;2024-01-30T05:58:29;99547.97;;;-0.26
77412;BMP280;66484;49.968;19.140;2024-01-30T06:00:31;99540.56;;;-0.39
77412;BMP280;66484;49.968;19.140;2024-01-30T06:02:32;99533.91;;;-0.33
77412;BMP280;66484;49.968;19.140;2024-01-30T06:04:32;99535.69;;;-0.18
77412;BMP280;66484;49.968;19.140;2024-01-30T06:06:33;99539.66;;;-0.28
77412;BMP280;66484;49.968;19.140;2024-01-30T06:08:33;99541.72;;;-0.78
77412;BMP280;66484;49.968;19.140;2024-01-30T06:10:34;99537.22;;;-0.77
77412;BMP280;66484;49.968;19.140;2024-01-30T06:12:35;99541.16;;;-0.68
77412;BMP280;66484;49.968;19.140;2024-01-30T06:14:36;99552.28;;;-0.74
77412;BMP280;66484;49.968;19.140;2024-01-30T06:16:36;99550.16;;;-0.69
77412;BMP280;66484;49.968;19.140;2024-01-30T06:18:37;99540.31;;;-0.72
77412;BMP280;66484;49.968;19.140;2024-01-30T06:20:38;99556.25;;;-0.65
77412;BMP280;66484;49.968;19.140;2024-01-30T06:22:38;99552.91;;;-0.62
77412;BMP280;66484;49.968;19.140;2024-01-30T06:24:39;99558.53;;;-0.45
77412;BMP280;66484;49.968;19.140;2024-01-30T06:26:39;99562.91;;;-0.52
77412;BMP280;66484;49.968;19.140;2024-01-30T06:28:40;99560.28;;;-0.71
77412;BMP280;66484;49.968;19.140;2024-01-30T06:30:41;99562.06;;;-0.56
77412;BMP280;66484;49.968;19.140;2024-01-30T06:32:41;99560.94;;;-0.36
77412;BMP280;66484;49.968;19.140;2024-01-30T06:34:42;99562.00;;;-0.59
77412;BMP280;66484;49.968;19.140;2024-01-30T06:36:44;99567.75;;;-0.54
77412;BMP280;66484;49.968;19.140;2024-01-30T06:38:45;99568.22;;;-0.49
77412;BMP280;66484;49.968;19.140;2024-01-30T06:40:46;99565.09;;;-0.35
77412;BMP280;66484;49.968;19.140;2024-01-30T06:42:46;99571.59;;;-0.29
77412;BMP280;66484;49.968;19.140;2024-01-30T06:44:47;99562.59;;;-0.28
77412;BMP280;66484;49.968;19.140;2024-01-30T06:46:47;99562.00;;;-0.18
77412;BMP280;66484;49.968;19.140;2024-01-30T06:48:48;99561.03;;;-0.10
77412;BMP280;66484;49.968;19.140;2024-01-30T06:50:49;99564.06;;;-0.08
77412;BMP280;66484;49.968;19.140;2024-01-30T06:52:51;99562.81;;;0.04
77412;BMP280;66484;49.968;19.140;2024-01-30T06:54:51;99554.03;;;0.19
77412;BMP280;66484;49.968;19.140;2024-01-30T06:56:52;99557.66;;;0.11
77412;BMP280;66484;49.968;19.140;2024-01-30T06:58:53;99561.22;;;0.22
77412;BMP280;66484;49.968;19.140;2024-01-30T07:00:54;99563.66;;;0.34
77412;BMP280;66484;49.968;19.140;2024-01-30T07:02:54;99569.34;;;0.36
77412;BMP280;66484;49.968;19.140;2024-01-30T07:04:55;99567.41;;;0.33
77412;BMP280;66484;49.968;19.140;2024-01-30T07:06:56;99559.81;;;0.54
77412;BMP280;66484;49.968;19.140;2024-01-30T07:08:57;99567.41;;;0.59
77412;BMP280;66484;49.968;19.140;2024-01-30T07:10:58;99565.84;;;0.54
77412;BMP280;66484;49.968;19.140;2024-01-30T07:13:00;99570.69;;;0.75
77412;BMP280;66484;49.968;19.140;2024-01-30T07:15:01;99573.47;;;0.59
77412;BMP280;66484;49.968;19.140;2024-01-30T07:17:03;99567.53;;;0.66
77412;BMP280;66484;49.968;19.140;2024-01-30T07:19:04;99564.03;;;0.84
77412;BMP280;66484;49.968;19.140;2024-01-30T07:21:05;99560.41;;;0.96
77412;BMP280;66484;49.968;19.140;2024-01-30T07:23:05;99572.41;;;0.90
77412;BMP280;66484;49.968;19.140;2024-01-30T07:25:06;99565.53;;;0.85
77412;BMP280;66484;49.968;19.140;2024-01-30T07:27:07;99564.06;;;0.88
77412;BMP280;66484;49.968;19.140;2024-01-30T07:29:08;99566.41;;;0.93
77412;BMP280;66484;49.968;19.140;2024-01-30T07:31:08;99561.41;;;1.13
77412;BMP280;66484;49.968;19.140;2024-01-30T07:33:09;99565.28;;;1.23
77412;BMP280;66484;49.968;19.140;2024-01-30T07:35:09;99562.25;;;1.21
77412;BMP280;66484;49.968;19.140;2024-01-30T07:37:11;99562.47;;;1.38
77412;BMP280;66484;49.968;19.140;2024-01-30T07:39:15;99556.53;;;1.48
77412;BMP280;66484;49.968;19.140;2024-01-30T07:41:16;99558.19;;;1.59
77412;BMP280;66484;49.968;19.140;2024-01-30T07:43:16;99558.00;;;1.46
77412;BMP280;66484;49.968;19.140;2024-01-30T07:45:17;99560.94;;;1.37
77412;BMP280;66484;49.968;19.140;2024-01-30T07:47:22;99564.78;;;1.43
77412;BMP280;66484;49.968;19.140;2024-01-30T07:49:23;99550.88;;;1.46
77412;BMP280;66484;49.968;19.140;2024-01-30T07:51:24;99549.03;;;1.50
77412;BMP280;66484;49.968;19.140;2024-01-30T07:53:24;99564.00;;;1.72
77412;BMP280;66484;49.968;19.140;2024-01-30T07:55:25;99563.34;;;1.85
77412;BMP280;66484;49.968;19.140;2024-01-30T07:57:27;99565.47;;;2.09
77412;BMP280;66484;49.968;19.140;2024-01-30T07:59:28;99558.44;;;2.23
77412;BMP280;66484;49.968;19.140;2024-01-30T08:01:29;99553.41;;;2.11
77412;BMP280;66484;49.968;19.140;2024-01-30T08:03:29;99556.41;;;2.07
77412;BMP280;66484;49.968;19.140;2024-01-30T08:05:31;99549.44;;;2.31
77412;BMP280;66484;49.968;19.140;2024-01-30T08:07:31;99548.81;;;2.48
77412;BMP280;66484;49.968;19.140;2024-01-30T08:09:32;99551.13;;;2.53
77412;BMP280;66484;49.968;19.140;2024-01-30T08:11:32;99557.38;;;2.31
77412;BMP280;66484;49.968;19.140;2024-01-30T08:13:33;99558.69;;;2.58
77412;BMP280;66484;49.968;19.140;2024-01-30T08:15:34;99566.75;;;2.79
77412;BMP280;66484;49.968;19.140;2024-01-30T08:17:34;99547.88;;;2.77
77412;BMP280;66484;49.968;19.140;2024-01-30T08:19:35;99557.56;;;2.63
77412;BMP280;66484;49.968;19.140;2024-01-30T08:21:35;99561.38;;;2.62
77412;BMP280;66484;49.968;19.140;2024-01-30T08:23:38;99557.31;;;2.78
77412;BMP280;66484;49.968;19.140;2024-01-30T08:25:39;99552.44;;;2.87
77412;BMP280;66484;49.968;19.140;2024-01-30T08:27:40;99561.50;;;2.86
77412;BMP280;66484;49.968;19.140;2024-01-30T08:29:40;99564.56;;;2.88
77412;BMP280;66484;49.968;19.140;2024-01-30T08:31:41;99550.06;;;2.68
77412;BMP280;66484;49.968;19.140;2024-01-30T08:33:42;99557.13;;;2.50
77412;BMP280;66484;49.968;19.140;2024-01-30T08:35:43;99560.53;;;2.54
77412;BMP280;66484;49.968;19.140;2024-01-30T08:37:43;99553.25;;;2.37
77412;BMP280;66484;49.968;19.140;2024-01-30T08:39:44;99555.56;;;2.46
77412;BMP280;66484;49.968;19.140;2024-01-30T08:41:44;99559.75;;;2.50
77412;BMP280;66484;49.968;19.140;2024-01-30T08:43:45;99559.72;;;2.43
77412;BMP280;66484;49.968;19.140;2024-01-30T08:45:46;99565.72;;;2.40
77412;BMP280;66484;49.968;19.140;2024-01-30T08:47:46;99553.75;;;2.53
77412;BMP280;66484;49.968;19.140;2024-01-30T08:49:47;99567.09;;;2.67
77412;BMP280;66484;49.968;19.140;2024-01-30T08:51:47;99564.28;;;2.50
77412;BMP280;66484;49.968;19.140;2024-01-30T08:53:48;99572.88;;;2.90
77412;BMP280;66484;49.968;19.140;2024-01-30T08:55:49;99566.16;;;3.03
77412;BMP280;66484;49.968;19.140;2024-01-30T08:57:49;99573.22;;;2.81
77412;BMP280;66484;49.968;19.140;2024-01-30T08:59:50;99577.34;;;2.79
77412;BMP280;66484;49.968;19.140;2024-01-30T09:01:50;99572.66;;;3.16
77412;BMP280;66484;49.968;19.140;2024-01-30T09:03:53;99566.38;;;3.51
77412;BMP280;66484;49.968;19.140;2024-01-30T09:05:54;99563.78;;;3.72
77412;BMP280;66484;49.968;19.140;2024-01-30T09:07:54;99571.75;;;3.69
77412;BMP280;66484;49.968;19.140;2024-01-30T09:09:55;99572.50;;;3.69
77412;BMP280;66484;49.968;19.140;2024-01-30T09:11:55;99563.78;;;3.65
77412;BMP280;66484;49.968;19.140;2024-01-30T09:13:56;99572.03;;;3.46
77412;BMP280;66484;49.968;19.140;2024-01-30T09:15:57;99575.91;;;3.66
77412;BMP280;66484;49.968;19.140;2024-01-30T09:17:58;99568.72;;;3.80
77412;BMP280;66484;49.968;19.140;2024-01-30T09:19:59;99560.41;;;3.89
77412;BMP280;66484;49.968;19.140;2024-01-30T09:21:59;99560.44;;;3.99
77412;BMP280;66484;49.968;19.140;2024-01-30T09:24:03;99557.06;;;4.13
77412;BMP280;66484;49.968;19.140;2024-01-30T09:26:06;99557.81;;;4.10
77412;BMP280;66484;49.968;19.140;2024-01-30T09:28:07;99558.19;;;4.05
77412;BMP280;66484;49.968;19.140;2024-01-30T09:30:08;99561.22;;;4.21
77412;BMP280;66484;49.968;19.140;2024-01-30T09:32:09;99560.84;;;4.25
77412;BMP280;66484;49.968;19.140;2024-01-30T09:34:09;99554.03;;;4.45
77412;BMP280;66484;49.968;19.140;2024-01-30T09:36:10;99559.38;;;4.52
77412;BMP280;66484;49.968;19.140;2024-01-30T09:38:11;99555.13;;;4.75
77412;BMP280;66484;49.968;19.140;2024-01-30T09:40:11;99546.81;;;4.56
77412;BMP280;66484;49.968;19.140;2024-01-30T09:42:28;99554.06;;;4.52
77412;BMP280;66484;49.968;19.140;2024-01-30T09:44:31;99551.38;;;4.56
77412;BMP280;66484;49.968;19.140;2024-01-30T09:46:36;99555.16;;;4.65
77412;BMP280;66484;49.968;19.140;2024-01-30T09:48:37;99547.97;;;4.59
77412;BMP280;66484;49.968;19.140;2024-01-30T09:50:38;99549.09;;;4.72
77412;BMP280;66484;49.968;19.140;2024-01-30T09:52:39;99549.06;;;4.82
77412;BMP280;66484;49.968;19.140;2024-01-30T09:54:41;99548.72;;;4.80
77412;BMP280;66484;49.968;19.140;2024-01-30T09:56:42;99542.97;;;4.92
77412;BMP280;66484;49.968;19.140;2024-01-30T09:58:43;99547.94;;;4.83
77412;BMP280;66484;49.968;19.140;2024-01-30T10:00:43;99533.91;;;4.69
77412;BMP280;66484;49.968;19.140;2024-01-30T10:02:44;99525.91;;;5.00
77412;BMP280;66484;49.968;19.140;2024-01-30T10:04:50;99535.38;;;5.01
77412;BMP280;66484;49.968;19.140;2024-01-30T10:06:50;99526.25;;;5.16
77412;BMP280;66484;49.968;19.140;2024-01-30T10:08:51;99527.31;;;5.25
77412;BMP280;66484;49.968;19.140;2024-01-30T10:10:52;99530.31;;;5.37
77412;BMP280;66484;49.968;19.140;2024-01-30T10:12:52;99524.69;;;5.22
77412;BMP280;66484;49.968;19.140;2024-01-30T10:14:53;99517.88;;;5.14
77412;BMP280;66484;49.968;19.140;2024-01-30T10:16:55;99527.72;;;5.27
77412;BMP280;66484;49.968;19.140;2024-01-30T10:18:56;99524.63;;;5.35
77412;BMP280;66484;49.968;19.140;2024-01-30T10:20:57;99520.78;;;5.47
77412;BMP280;66484;49.968;19.140;2024-01-30T10:22:58;99513.63;;;5.40
77412;BMP280;66484;49.968;19.140;2024-01-30T10:25:00;99510.19;;;5.40
77412;BMP280;66484;49.968;19.140;2024-01-30T10:27:00;99514.00;;;5.35
77412;BMP280;66484;49.968;19.140;2024-01-30T10:29:01;99509.50;;;5.26
77412;BMP280;66484;49.968;19.140;2024-01-30T10:31:02;99509.00;;;5.51
77412;BMP280;66484;49.968;19.140;2024-01-30T10:33:06;99508.66;;;5.42
77412;BMP280;66484;49.968;19.140;2024-01-30T10:35:08;99496.06;;;5.53
77412;BMP280;66484;49.968;19.140;2024-01-30T10:37:10;99507.09;;;5.48
77412;BMP280;66484;49.968;19.140;2024-01-30T10:39:14;99501.06;;;5.37
77412;BMP280;66484;49.968;19.140;2024-01-30T10:41:19;99510.13;;;5.50
77412;BMP280;66484;49.968;19.140;2024-01-30T10:43:22;99499.38;;;5.71
77412;BMP280;66484;49.968;19.140;2024-01-30T10:45:26;99493.69;;;5.76
77412;BMP280;66484;49.968;19.140;2024-01-30T10:47:29;99500.84;;;5.82
77412;BMP280;66484;49.968;19.140;2024-01-30T10:49:29;99492.50;;;5.84
77412;BMP280;66484;49.968;19.140;2024-01-30T10:51:31;99493.19;;;5.95
77412;BMP280;66484;49.968;19.140;2024-01-30T10:53:32;99483.31;;;5.92
77412;BMP280;66484;49.968;19.140;2024-01-30T10:55:34;99485.63;;;5.86
77412;BMP280;66484;49.968;19.140;2024-01-30T10:57:39;99479.88;;;5.98
77412;BMP280;66484;49.968;19.140;2024-01-30T10:59:40;99474.44;;;6.09
77412;BMP280;66484;49.968;19.140;2024-01-30T11:01:42;99482.53;;;5.95
77412;BMP280;66484;49.968;19.140;2024-01-30T11:03:43;99482.88;;;6.04
77412;BMP280;66484;49.968;19.140;2024-01-30T11:05:49;99465.72;;;6.12
77412;BMP280;66484;49.968;19.140;2024-01-30T11:07:50;99480.88;;;6.15
77412;BMP280;66484;49.968;19.140;2024-01-30T11:09:51;99472.69;;;5.95
77412;BMP280;66484;49.968;19.140;2024-01-30T11:11:56;99450.16;;;6.07
77412;BMP280;66484;49.968;19.140;2024-01-30T11:14:01;99454.22;;;6.22
77412;BMP280;66484;49.968;19.140;2024-01-30T11:16:04;99450.03;;;6.21
77412;BMP280;66484;49.968;19.140;2024-01-30T11:18:07;99445.13;;;6.16
77412;BMP280;66484;49.968;19.140;2024-01-30T11:20:16;99449.69;;;6.15
77412;BMP280;66484;49.968;19.140;2024-01-30T11:22:20;99454.28;;;6.15
77412;BMP280;66484;49.968;19.140;2024-01-30T11:24:21;99455.94;;;5.98
77412;BMP280;66484;49.968;19.140;2024-01-30T11:26:28;99441.50;;;5.99
77412;BMP280;66484;49.968;19.140;2024-01-30T11:28:33;99443.56;;;6.22
77412;BMP280;66484;49.968;19.140;2024-01-30T11:30:34;99443.50;;;6.29
77412;BMP280;66484;49.968;19.140;2024-01-30T11:34:44;99443.44;;;6.36
77412;BMP280;66484;49.968;19.140;2024-01-30T11:36:45;99438.53;;;6.31
77412;BMP280;66484;49.968;19.140;2024-01-30T11:38:48;99432.00;;;6.38